sensor_id;sensor_type;location;lat;lon;timestamp;pressure;altitude;pressure_sealevel;temperature;humidity
75788;BME280;64406;50.024;14.492;2023-05-10T00:01:46;97623.72;;;6.99;67.87
75788;BME280;64406;50.024;14.492;2023-05-10T00:04:11;97624.56;;;6.95;67.75
75788;BME280;64406;50.024;14.492;2023-05-10T00:06:37;97614.38;;;6.87;68.73
75788;BME280;64406;50.024;14.492;2023-05-10T00:09:03;97610.09;;;6.86;68.20
75788;BME280;64406;50.024;14.492;2023-05-10T00:11:29;97605.56;;;6.76;68.11
75788;BME280;64406;50.024;14.492;2023-05-10T00:13:54;97612.25;;;6.78;68.18
75788;BME280;64406;50.024;14.492;2023-05-10T00:16:20;97610.13;;;6.75;68.51
75788;BME280;64406;50.024;14.492;2023-05-10T00:18:46;97608.50;;;6.69;68.59
75788;BME280;64406;50.024;14.492;2023-05-10T00:21:12;97609.59;;;6.68;68.84
75788;BME280;64406;50.024;14.492;2023-05-10T00:23:37;97608.50;;;6.64;68.56
75788;BME280;64406;50.024;14.492;2023-05-10T00:26:03;97601.03;;;6.56;69.02
75788;BME280;64406;50.024;14.492;2023-05-10T00:28:28;97613.31;;;6.72;68.56
75788;BME280;64406;50.024;14.492;2023-05-10T00:30:54;97605.31;;;6.67;68.68
75788;BME280;64406;50.024;14.492;2023-05-10T00:33:20;97606.34;;;6.66;69.04
75788;BME280;64406;50.024;14.492;2023-05-10T00:35:46;97610.94;;;6.61;69.25
75788;BME280;64406;50.024;14.492;2023-05-10T00:38:12;97593.00;;;6.61;69.17
75788;BME280;64406;50.024;14.492;2023-05-10T00:40:37;97597.28;;;6.62;69.05
75788;BME280;64406;50.024;14.492;2023-05-10T00:43:03;97595.13;;;6.59;69.12
75788;BME280;64406;50.024;14.492;2023-05-10T00:45:30;97600.47;;;6.64;68.97
75788;BME280;64406;50.024;14.492;2023-05-10T00:47:58;97592.19;;;6.56;69.44
75788;BME280;64406;50.024;14.492;2023-05-10T00:50:25;97591.94;;;6.62;69.17
75788;BME280;64406;50.024;14.492;2023-05-10T00:52:51;97591.91;;;6.52;69.85
75788;BME280;64406;50.024;14.492;2023-05-10T00:55:17;97586.84;;;6.50;69.99
75788;BME280;64406;50.024;14.492;2023-05-10T00:57:43;97567.84;;;6.32;70.23
75788;BME280;64406;50.024;14.492;2023-05-10T01:00:10;97592.19;;;6.40;70.21
75788;BME280;64406;50.024;14.492;2023-05-10T01:02:36;97571.88;;;6.34;70.14
75788;BME280;64406;50.024;14.492;2023-05-10T01:05:03;97582.84;;;6.43;69.91
75788;BME280;64406;50.024;14.492;2023-05-10T01:07:29;97575.88;;;6.37;70.01
75788;BME280;64406;50.024;14.492;2023-05-10T01:09:55;97581.47;;;6.40;70.17
75788;BME280;64406;50.024;14.492;2023-05-10T01:12:21;97572.91;;;6.33;70.38
75788;BME280;64406;50.024;14.492;2023-05-10T01:14:47;97578.03;;;6.35;70.55
75788;BME280;64406;50.024;14.492;2023-05-10T01:17:13;97577.75;;;6.36;69.82
75788;BME280;64406;50.024;14.492;2023-05-10T01:19:40;97583.63;;;6.38;70.22
75788;BME280;64406;50.024;14.492;2023-05-10T01:34:09;97571.59;;;6.31;70.36
75788;BME280;64406;50.024;14.492;2023-05-10T01:37:00;97565.97;;;6.22;70.73
75788;BME280;64406;50.024;14.492;2023-05-10T01:39:45;97571.56;;;6.25;70.81
75788;BME280;64406;50.024;14.492;2023-05-10T01:42:25;97561.69;;;6.26;70.68
75788;BME280;64406;50.024;14.492;2023-05-10T01:44:58;97572.66;;;6.30;70.80
75788;BME280;64406;50.024;14.492;2023-05-10T01:47:41;97563.84;;;6.29;71.04
75788;BME280;64406;50.024;14.492;2023-05-10T01:50:12;97559.28;;;6.24;71.19
75788;BME280;64406;50.024;14.492;2023-05-10T01:52:42;97564.34;;;6.26;70.95
75788;BME280;64406;50.024;14.492;2023-05-10T01:55:13;97565.41;;;6.20;71.19
75788;BME280;64406;50.024;14.492;2023-05-10T01:57:40;97568.09;;;6.20;71.59
75788;BME280;64406;50.024;14.492;2023-05-10T02:00:08;97563.53;;;6.20;71.98
75788;BME280;64406;50.024;14.492;2023-05-10T02:02:40;97559.81;;;6.21;71.80
75788;BME280;64406;50.024;14.492;2023-05-10T02:05:08;97565.69;;;6.13;71.70
75788;BME280;64406;50.024;14.492;2023-05-10T02:07:37;97569.16;;;6.04;72.46
75788;BME280;64406;50.024;14.492;2023-05-10T02:10:05;97558.44;;;5.98;72.14
75788;BME280;64406;50.024;14.492;2023-05-10T02:12:36;97543.19;;;5.89;72.64
75788;BME280;64406;50.024;14.492;2023-05-10T02:15:02;97565.94;;;5.91;72.77
75788;BME280;64406;50.024;14.492;2023-05-10T02:17:31;97557.63;;;5.88;72.72
75788;BME280;64406;50.024;14.492;2023-05-10T02:19:58;97561.34;;;5.82;73.26
75788;BME280;64406;50.024;14.492;2023-05-10T02:22:26;97563.22;;;5.81;73.45
75788;BME280;64406;50.024;14.492;2023-05-10T02:24:55;97566.69;;;5.82;73.33
75788;BME280;64406;50.024;14.492;2023-05-10T02:27:23;97566.13;;;5.80;73.38
75788;BME280;64406;50.024;14.492;2023-05-10T02:29:51;97554.91;;;5.78;73.42
75788;BME280;64406;50.024;14.492;2023-05-10T02:32:17;97562.91;;;5.72;73.65
75788;BME280;64406;50.024;14.492;2023-05-10T02:34:44;97565.06;;;5.70;73.58
75788;BME280;64406;50.024;14.492;2023-05-10T02:37:15;97563.97;;;5.71;73.83
75788;BME280;64406;50.024;14.492;2023-05-10T02:39:42;97557.03;;;5.70;73.81
75788;BME280;64406;50.024;14.492;2023-05-10T02:42:17;97560.50;;;5.66;73.50
75788;BME280;64406;50.024;14.492;2023-05-10T02:44:45;97555.94;;;5.61;73.95
75788;BME280;64406;50.024;14.492;2023-05-10T02:47:12;97559.97;;;5.64;74.29
75788;BME280;64406;50.024;14.492;2023-05-10T02:49:38;97562.88;;;5.57;74.28
75788;BME280;64406;50.024;14.492;2023-05-10T02:52:05;97561.28;;;5.56;74.12
75788;BME280;64406;50.024;14.492;2023-05-10T02:54:36;97552.69;;;5.54;74.17
75788;BME280;64406;50.024;14.492;2023-05-10T02:57:05;97558.31;;;5.53;74.30
75788;BME280;64406;50.024;14.492;2023-05-10T02:59:31;97550.56;;;5.51;74.69
75788;BME280;64406;50.024;14.492;2023-05-10T03:01:59;97548.66;;;5.46;74.72
75788;BME280;64406;50.024;14.492;2023-05-10T03:04:25;97554.34;;;5.55;74.77
75788;BME280;64406;50.024;14.492;2023-05-10T03:06:51;97551.91;;;5.54;74.59
75788;BME280;64406;50.024;14.492;2023-05-10T03:09:18;97551.66;;;5.55;74.23
75788;BME280;64406;50.024;14.492;2023-05-10T03:12:00;97547.34;;;5.54;74.27
75788;BME280;64406;50.024;14.492;2023-05-10T03:17:25;97545.22;;;5.51;74.19
75788;BME280;64406;50.024;14.492;2023-05-10T03:19:56;97538.31;;;5.55;74.44
75788;BME280;64406;50.024;14.492;2023-05-10T03:22:31;97546.03;;;5.52;74.50
75788;BME280;64406;50.024;14.492;2023-05-10T03:24:57;97538.84;;;5.62;74.50
75788;BME280;64406;50.024;14.492;2023-05-10T03:27:26;97546.56;;;5.54;74.57
75788;BME280;64406;50.024;14.492;2023-05-10T03:29:53;97538.00;;;5.52;74.18
75788;BME280;64406;50.024;14.492;2023-05-10T03:32:20;97545.75;;;5.53;74.26
75788;BME280;64406;50.024;14.492;2023-05-10T03:34:45;97551.91;;;5.59;74.31
75788;BME280;64406;50.024;14.492;2023-05-10T03:37:11;97553.00;;;5.58;74.46
75788;BME280;64406;50.024;14.492;2023-05-10T03:39:36;97554.84;;;5.52;74.30
75788;BME280;64406;50.024;14.492;2023-05-10T03:42:02;97560.47;;;5.61;74.65
75788;BME280;64406;50.024;14.492;2023-05-10T03:44:28;97567.44;;;5.62;74.68
75788;BME280;64406;50.024;14.492;2023-05-10T03:46:54;97566.34;;;5.58;74.48
75788;BME280;64406;50.024;14.492;2023-05-10T03:49:20;97570.09;;;5.67;74.15
75788;BME280;64406;50.024;14.492;2023-05-10T03:51:46;97568.00;;;5.69;74.32
75788;BME280;64406;50.024;14.492;2023-05-10T03:54:11;97556.50;;;5.68;74.40
75788;BME280;64406;50.024;14.492;2023-05-10T03:56:37;97563.47;;;5.80;73.88
75788;BME280;64406;50.024;14.492;2023-05-10T03:59:02;97561.06;;;5.83;73.83
75788;BME280;64406;50.024;14.492;2023-05-10T04:01:33;97559.72;;;5.86;73.69
75788;BME280;64406;50.024;14.492;2023-05-10T04:03:59;97562.97;;;5.88;73.62
75788;BME280;64406;50.024;14.492;2023-05-10T04:06:25;97563.00;;;5.98;73.14
75788;BME280;64406;50.024;14.492;2023-05-10T04:08:50;97558.97;;;6.00;73.31
75788;BME280;64406;50.024;14.492;2023-05-10T04:11:16;97563.03;;;6.08;73.09
75788;BME280;64406;50.024;14.492;2023-05-10T04:13:41;97568.13;;;6.15;72.64
75788;BME280;64406;50.024;14.492;2023-05-10T04:16:08;97558.47;;;6.24;72.64
75788;BME280;64406;50.024;14.492;2023-05-10T04:18:34;97566.25;;;6.36;72.46
75788;BME280;64406;50.024;14.492;2023-05-10T04:21:00;97556.09;;;6.48;71.81
75788;BME280;64406;50.024;14.492;2023-05-10T04:23:27;97559.28;;;6.50;72.05
75788;BME280;64406;50.024;14.492;2023-05-10T04:25:59;97556.63;;;6.55;71.96
75788;BME280;64406;50.024;14.492;2023-05-10T04:28:24;97556.34;;;6.62;72.31
75788;BME280;64406;50.024;14.492;2023-05-10T04:30:50;97562.47;;;6.72;71.47
75788;BME280;64406;50.024;14.492;2023-05-10T04:33:15;97558.72;;;6.89;71.36
75788;BME280;64406;50.024;14.492;2023-05-10T04:35:41;97564.84;;;6.94;70.59
75788;BME280;64406;50.024;14.492;2023-05-10T04:38:06;97557.34;;;7.01;70.75
75788;BME280;64406;50.024;14.492;2023-05-10T04:40:32;97554.91;;;7.10;69.84
75788;BME280;64406;50.024;14.492;2023-05-10T04:42:58;97555.41;;;7.22;70.21
75788;BME280;64406;50.024;14.492;2023-05-10T04:45:23;97548.16;;;7.28;69.55
75788;BME280;64406;50.024;14.492;2023-05-10T04:47:49;97544.91;;;7.36;69.99
75788;BME280;64406;50.024;14.492;2023-05-10T04:50:15;97551.31;;;7.40;69.07
75788;BME280;64406;50.024;14.492;2023-05-10T04:52:40;97548.59;;;7.45;69.40
75788;BME280;64406;50.024;14.492;2023-05-10T04:55:06;97540.53;;;7.55;68.82
75788;BME280;64406;50.024;14.492;2023-05-10T04:57:34;97544.78;;;7.61;68.93
75788;BME280;64406;50.024;14.492;2023-05-10T05:00:00;97550.63;;;7.74;68.31
75788;BME280;64406;50.024;14.492;2023-05-10T05:02:25;97553.00;;;7.80;68.71
75788;BME280;64406;50.024;14.492;2023-05-10T05:04:51;97544.66;;;7.87;68.18
75788;BME280;64406;50.024;14.492;2023-05-10T05:07:17;97543.53;;;7.93;68.50
75788;BME280;64406;50.024;14.492;2023-05-10T05:09:42;97546.94;;;8.04;68.86
75788;BME280;64406;50.024;14.492;2023-05-10T05:12:08;97555.25;;;8.07;68.43
75788;BME280;64406;50.024;14.492;2023-05-10T05:14:40;97554.63;;;8.15;67.88
75788;BME280;64406;50.024;14.492;2023-05-10T05:17:06;97548.19;;;8.16;68.13
75788;BME280;64406;50.024;14.492;2023-05-10T05:19:32;97545.47;;;8.22;67.86
75788;BME280;64406;50.024;14.492;2023-05-10T05:21:58;97555.31;;;8.31;68.42
75788;BME280;64406;50.024;14.492;2023-05-10T05:24:24;97552.63;;;8.36;68.07
75788;BME280;64406;50.024;14.492;2023-05-10T05:26:49;97545.09;;;8.38;68.17
75788;BME280;64406;50.024;14.492;2023-05-10T05:29:15;97555.44;;;8.55;67.83
75788;BME280;64406;50.024;14.492;2023-05-10T05:31:41;97555.03;;;8.72;67.55
75788;BME280;64406;50.024;14.492;2023-05-10T05:34:07;97550.00;;;8.89;65.73
75788;BME280;64406;50.024;14.492;2023-05-10T05:36:40;97544.59;;;8.94;66.57
75788;BME280;64406;50.024;14.492;2023-05-10T05:39:09;97555.59;;;8.98;66.09
75788;BME280;64406;50.024;14.492;2023-05-10T05:41:46;97537.84;;;8.97;66.37
75788;BME280;64406;50.024;14.492;2023-05-10T05:44:12;97544.53;;;9.23;65.33
75788;BME280;64406;50.024;14.492;2023-05-10T05:46:39;97562.94;;;9.35;65.51
75788;BME280;64406;50.024;14.492;2023-05-10T05:49:05;97560.06;;;9.50;65.05
75788;BME280;64406;50.024;14.492;2023-05-10T05:51:31;97558.34;;;9.60;64.52
75788;BME280;64406;50.024;14.492;2023-05-10T05:53:57;97550.13;;;9.70;64.90
75788;BME280;64406;50.024;14.492;2023-05-10T05:56:24;97545.50;;;9.75;64.03
75788;BME280;64406;50.024;14.492;2023-05-10T05:58:50;97555.91;;;9.82;64.13
75788;BME280;64406;50.024;14.492;2023-05-10T06:01:19;97563.31;;;9.90;63.80
75788;BME280;64406;50.024;14.492;2023-05-10T06:03:45;97568.84;;;9.99;64.99
75788;BME280;64406;50.024;14.492;2023-05-10T06:06:13;97559.47;;;10.15;63.22
75788;BME280;64406;50.024;14.492;2023-05-10T06:08:39;97566.63;;;10.25;62.00
75788;BME280;64406;50.024;14.492;2023-05-10T06:11:05;97562.03;;;10.44;62.18
75788;BME280;64406;50.024;14.492;2023-05-10T06:13:30;97554.53;;;10.41;60.92
75788;BME280;64406;50.024;14.492;2023-05-10T06:15:58;97559.97;;;10.69;59.77
75788;BME280;64406;50.024;14.492;2023-05-10T06:18:24;97559.41;;;10.72;59.77
75788;BME280;64406;50.024;14.492;2023-05-10T06:20:51;97541.66;;;10.71;59.77
75788;BME280;64406;50.024;14.492;2023-05-10T06:23:17;97563.56;;;10.97;59.15
75788;BME280;64406;50.024;14.492;2023-05-10T06:25:42;97563.66;;;11.05;58.78
75788;BME280;64406;50.024;14.492;2023-05-10T06:28:08;97558.19;;;11.10;58.50
75788;BME280;64406;50.024;14.492;2023-05-10T06:30:35;97553.78;;;11.14;58.52
75788;BME280;64406;50.024;14.492;2023-05-10T06:33:01;97560.66;;;11.21;58.57
75788;BME280;64406;50.024;14.492;2023-05-10T06:35:28;97556.47;;;11.28;58.20
75788;BME280;64406;50.024;14.492;2023-05-10T06:37:54;97567.06;;;11.38;58.46
75788;BME280;64406;50.024;14.492;2023-05-10T06:40:20;97550.50;;;11.45;57.60
75788;BME280;64406;50.024;14.492;2023-05-10T06:42:47;97548.88;;;11.58;56.91
75788;BME280;64406;50.024;14.492;2023-05-10T06:45:14;97559.66;;;11.71;55.93
75788;BME280;64406;50.024;14.492;2023-05-10T06:47:41;97557.75;;;11.72;56.94
75788;BME280;64406;50.024;14.492;2023-05-10T06:50:08;97543.28;;;11.82;56.07
75788;BME280;64406;50.024;14.492;2023-05-10T06:52:39;97560.63;;;12.03;56.33
75788;BME280;64406;50.024;14.492;2023-05-10T06:55:06;97544.53;;;11.98;56.71
75788;BME280;64406;50.024;14.492;2023-05-10T06:57:32;97556.03;;;12.04;56.15
75788;BME280;64406;50.024;14.492;2023-05-10T06:59:58;97558.91;;;12.07;56.34
75788;BME280;64406;50.024;14.492;2023-05-10T07:02:24;97560.91;;;12.15;55.99
75788;BME280;64406;50.024;14.492;2023-05-10T07:04:50;97561.44;;;12.26;56.42
75788;BME280;64406;50.024;14.492;2023-05-10T07:07:17;97558.44;;;12.28;55.27
75788;BME280;64406;50.024;14.492;2023-05-10T07:09:43;97550.66;;;12.26;55.07
75788;BME280;64406;50.024;14.492;2023-05-10T07:12:08;97557.34;;;12.29;55.89
75788;BME280;64406;50.024;14.492;2023-05-10T07:14:34;97552.56;;;12.48;55.47
75788;BME280;64406;50.024;14.492;2023-05-10T07:17:00;97480.34;;;12.09;55.41
75788;BME280;64406;50.024;14.492;2023-05-10T07:19:26;97551.19;;;12.59;55.26
75788;BME280;64406;50.024;14.492;2023-05-10T07:21:55;97556.72;;;12.76;54.89
75788;BME280;64406;50.024;14.492;2023-05-10T07:24:24;97496.06;;;12.60;54.12
75788;BME280;64406;50.024;14.492;2023-05-10T07:26:51;97483.06;;;12.40;54.28
75788;BME280;64406;50.024;14.492;2023-05-10T07:29:17;97571.31;;;12.98;54.20
75788;BME280;64406;50.024;14.492;2023-05-10T07:31:46;97527.75;;;12.68;53.44
75788;BME280;64406;50.024;14.492;2023-05-10T07:34:28;97524.00;;;12.87;53.84
75788;BME280;64406;50.024;14.492;2023-05-10T07:36:58;97486.78;;;12.75;54.49
75788;BME280;64406;50.024;14.492;2023-05-10T07:39:25;97531.78;;;13.19;53.73
75788;BME280;64406;50.024;14.492;2023-05-10T07:41:57;97552.75;;;13.45;52.92
75788;BME280;64406;50.024;14.492;2023-05-10T07:44:33;97555.78;;;13.43;53.54
75788;BME280;64406;50.024;14.492;2023-05-10T07:46:58;97555.22;;;13.64;53.95
75788;BME280;64406;50.024;14.492;2023-05-10T07:49:26;97561.59;;;13.68;52.63
75788;BME280;64406;50.024;14.492;2023-05-10T07:51:52;97560.81;;;13.76;52.40
75788;BME280;64406;50.024;14.492;2023-05-10T07:54:21;97551.44;;;13.82;51.93
75788;BME280;64406;50.024;14.492;2023-05-10T07:56:47;97543.31;;;13.82;51.79
75788;BME280;64406;50.024;14.492;2023-05-10T07:59:17;97556.38;;;14.06;51.91
75788;BME280;64406;50.024;14.492;2023-05-10T08:01:43;97546.69;;;14.22;51.40
75788;BME280;64406;50.024;14.492;2023-05-10T08:04:09;97551.75;;;14.32;51.23
75788;BME280;64406;50.024;14.492;2023-05-10T08:06:35;97547.50;;;14.49;50.87
75788;BME280;64406;50.024;14.492;2023-05-10T08:09:00;97550.50;;;14.56;49.73
75788;BME280;64406;50.024;14.492;2023-05-10T08:11:26;97540.94;;;14.58;49.81
75788;BME280;64406;50.024;14.492;2023-05-10T08:13:54;97550.50;;;14.64;50.33
75788;BME280;64406;50.024;14.492;2023-05-10T08:16:20;97550.34;;;14.69;50.49
75788;BME280;64406;50.024;14.492;2023-05-10T08:18:47;97556.69;;;14.82;50.43
75788;BME280;64406;50.024;14.492;2023-05-10T08:21:13;97549.34;;;14.83;49.43
75788;BME280;64406;50.024;14.492;2023-05-10T08:23:39;97547.09;;;14.93;50.31
75788;BME280;64406;50.024;14.492;2023-05-10T08:26:05;97552.66;;;15.06;48.38
75788;BME280;64406;50.024;14.492;2023-05-10T08:28:31;97556.91;;;15.15;48.68
75788;BME280;64406;50.024;14.492;2023-05-10T08:30:56;97548.94;;;15.19;49.12
75788;BME280;64406;50.024;14.492;2023-05-10T08:33:23;97549.22;;;15.26;49.17
75788;BME280;64406;50.024;14.492;2023-05-10T08:35:49;97554.66;;;15.26;48.30
75788;BME280;64406;50.024;14.492;2023-05-10T08:38:15;97551.16;;;15.26;47.56
75788;BME280;64406;50.024;14.492;2023-05-10T08:43:15;97534.03;;;15.25;48.29
75788;BME280;64406;50.024;14.492;2023-05-10T08:45:44;97553.31;;;15.41;48.17
75788;BME280;64406;50.024;14.492;2023-05-10T08:48:13;97557.38;;;15.56;47.92
75788;BME280;64406;50.024;14.492;2023-05-10T08:50:41;97545.72;;;15.55;47.58
75788;BME280;64406;50.024;14.492;2023-05-10T08:53:12;97553.31;;;15.70;48.75
75788;BME280;64406;50.024;14.492;2023-05-10T08:55:39;97557.25;;;15.82;47.08
75788;BME280;64406;50.024;14.492;2023-05-10T08:58:06;97550.41;;;16.05;47.14
75788;BME280;64406;50.024;14.492;2023-05-10T09:00:34;97539.66;;;16.09;45.41
75788;BME280;64406;50.024;14.492;2023-05-10T09:03:02;97534.91;;;16.06;46.17
75788;BME280;64406;50.024;14.492;2023-05-10T09:05:28;97537.69;;;16.18;46.01
75788;BME280;64406;50.024;14.492;2023-05-10T09:07:54;97552.31;;;16.46;45.97
75788;BME280;64406;50.024;14.492;2023-05-10T09:10:20;97558.78;;;16.54;44.98
75788;BME280;64406;50.024;14.492;2023-05-10T09:12:48;97552.16;;;16.84;44.85
75788;BME280;64406;50.024;14.492;2023-05-10T09:15:17;97542.09;;;16.97;44.86
75788;BME280;64406;50.024;14.492;2023-05-10T09:17:44;97545.72;;;17.01;43.42
75788;BME280;64406;50.024;14.492;2023-05-10T09:20:10;97557.72;;;17.00;43.78
75788;BME280;64406;50.024;14.492;2023-05-10T09:22:36;97539.28;;;17.18;43.80
75788;BME280;64406;50.024;14.492;2023-05-10T09:25:11;97562.53;;;17.28;42.75
75788;BME280;64406;50.024;14.492;2023-05-10T09:27:39;97554.16;;;17.45;42.36
75788;BME280;64406;50.024;14.492;2023-05-10T09:30:07;97547.47;;;17.55;42.47
75788;BME280;64406;50.024;14.492;2023-05-10T09:32:45;97548.94;;;17.64;42.64
75788;BME280;64406;50.024;14.492;2023-05-10T09:35:21;97540.78;;;17.64;42.89
75788;BME280;64406;50.024;14.492;2023-05-10T09:37:49;97556.78;;;17.54;42.29
75788;BME280;64406;50.024;14.492;2023-05-10T09:40:17;97557.47;;;17.63;42.35
75788;BME280;64406;50.024;14.492;2023-05-10T09:45:16;97550.88;;;17.64;41.92
75788;BME280;64406;50.024;14.492;2023-05-10T09:47:42;97556.41;;;17.67;41.73
75788;BME280;64406;50.024;14.492;2023-05-10T09:50:09;97554.41;;;17.77;41.19
75788;BME280;64406;50.024;14.492;2023-05-10T09:52:57;97544.41;;;17.81;41.11
75788;BME280;64406;50.024;14.492;2023-05-10T09:55:45;97548.34;;;17.96;41.94
75788;BME280;64406;50.024;14.492;2023-05-10T09:58:12;97542.91;;;17.96;41.94
75788;BME280;64406;50.024;14.492;2023-05-10T10:00:46;97549.91;;;18.21;42.24
75788;BME280;64406;50.024;14.492;2023-05-10T10:03:19;97550.16;;;18.16;40.78
75788;BME280;64406;50.024;14.492;2023-05-10T10:05:48;97555.81;;;18.23;41.98
75788;BME280;64406;50.024;14.492;2023-05-10T10:08:17;97549.22;;;18.24;42.04
75788;BME280;64406;50.024;14.492;2023-05-10T10:10:43;97553.97;;;18.67;41.17
75788;BME280;64406;50.024;14.492;2023-05-10T10:13:15;97556.56;;;18.76;39.25
75788;BME280;64406;50.024;14.492;2023-05-10T10:15:45;97540.69;;;18.82;39.55
75788;BME280;64406;50.024;14.492;2023-05-10T10:18:14;97538.28;;;18.92;39.68
75788;BME280;64406;50.024;14.492;2023-05-10T10:20:44;97543.84;;;18.96;40.05
75788;BME280;64406;50.024;14.492;2023-05-10T10:23:10;97540.81;;;18.57;39.79
75788;BME280;64406;50.024;14.492;2023-05-10T10:25:40;97553.66;;;18.85;39.90
75788;BME280;64406;50.024;14.492;2023-05-10T10:28:21;97535.22;;;19.10;38.96
75788;BME280;64406;50.024;14.492;2023-05-10T10:30:51;97512.59;;;19.09;38.49
75788;BME280;64406;50.024;14.492;2023-05-10T10:36:00;97533.63;;;19.09;39.15
75788;BME280;64406;50.024;14.492;2023-05-10T10:38:57;97542.19;;;19.54;38.32
75788;BME280;64406;50.024;14.492;2023-05-10T10:41:38;97533.25;;;19.89;37.12
75788;BME280;64406;50.024;14.492;2023-05-10T10:47:01;97532.72;;;20.38;37.03
75788;BME280;64406;50.024;14.492;2023-05-10T10:49:44;97536.66;;;20.79;37.02
75788;BME280;64406;50.024;14.492;2023-05-10T10:55:09;97537.78;;;20.98;36.07
75788;BME280;64406;50.024;14.492;2023-05-10T10:57:54;97542.38;;;21.13;35.98
75788;BME280;64406;50.024;14.492;2023-05-10T11:00:29;97531.50;;;20.74;35.66
75788;BME280;64406;50.024;14.492;2023-05-10T11:02:58;97526.97;;;20.43;36.18
75788;BME280;64406;50.024;14.492;2023-05-10T11:10:33;97516.78;;;20.82;36.18
75788;BME280;64406;50.024;14.492;2023-05-10T11:13:07;97511.63;;;20.38;36.25
75788;BME280;64406;50.024;14.492;2023-05-10T11:15:48;97523.88;;;20.64;35.84
75788;BME280;64406;50.024;14.492;2023-05-10T11:18:20;97515.25;;;20.62;35.52
75788;BME280;64406;50.024;14.492;2023-05-10T11:21:00;97515.59;;;21.03;36.17
75788;BME280;64406;50.024;14.492;2023-05-10T11:23:47;97522.88;;;21.18;35.16
75788;BME280;64406;50.024;14.492;2023-05-10T11:26:14;97514.38;;;21.23;34.50
75788;BME280;64406;50.024;14.492;2023-05-10T11:28:44;97514.69;;;21.41;34.69
75788;BME280;64406;50.024;14.492;2023-05-10T11:31:13;97515.50;;;21.68;35.32
75788;BME280;64406;50.024;14.492;2023-05-10T11:33:47;97523.22;;;21.13;36.35
75788;BME280;64406;50.024;14.492;2023-05-10T11:36:16;97507.56;;;21.13;35.48
75788;BME280;64406;50.024;14.492;2023-05-10T11:38:47;97521.25;;;21.59;35.37
75788;BME280;64406;50.024;14.492;2023-05-10T11:41:14;97525.31;;;21.95;33.49
75788;BME280;64406;50.024;14.492;2023-05-10T11:43:52;97517.06;;;21.95;33.48
75788;BME280;64406;50.024;14.492;2023-05-10T11:46:20;97512.63;;;21.34;34.77
75788;BME280;64406;50.024;14.492;2023-05-10T11:48:49;97520.59;;;21.43;34.54
75788;BME280;64406;50.024;14.492;2023-05-10T11:51:20;97511.25;;;21.25;34.48
75788;BME280;64406;50.024;14.492;2023-05-10T11:53:46;97523.19;;;21.59;33.96
75788;BME280;64406;50.024;14.492;2023-05-10T11:56:11;97524.69;;;22.06;33.46
75788;BME280;64406;50.024;14.492;2023-05-10T11:58:38;97518.09;;;22.77;32.71
75788;BME280;64406;50.024;14.492;2023-05-10T12:01:06;97523.56;;;22.74;31.74
75788;BME280;64406;50.024;14.492;2023-05-10T12:03:32;97529.09;;;22.44;32.82
75788;BME280;64406;50.024;14.492;2023-05-10T12:05:58;97524.03;;;21.89;33.09
75788;BME280;64406;50.024;14.492;2023-05-10T12:08:26;97530.41;;;22.23;33.59
75788;BME280;64406;50.024;14.492;2023-05-10T12:10:53;97529.88;;;22.44;34.03
75788;BME280;64406;50.024;14.492;2023-05-10T12:13:20;97523.06;;;22.31;33.46
75788;BME280;64406;50.024;14.492;2023-05-10T12:15:46;97537.38;;;22.17;34.29
75788;BME280;64406;50.024;14.492;2023-05-10T12:18:13;97536.53;;;22.43;33.46
75788;BME280;64406;50.024;14.492;2023-05-10T12:20:39;97534.72;;;22.24;34.70
75788;BME280;64406;50.024;14.492;2023-05-10T12:23:08;97533.47;;;22.18;34.30
75788;BME280;64406;50.024;14.492;2023-05-10T12:25:36;97539.19;;;22.36;33.75
75788;BME280;64406;50.024;14.492;2023-05-10T12:28:05;97538.78;;;22.34;34.09
75788;BME280;64406;50.024;14.492;2023-05-10T12:30:33;97537.75;;;22.16;34.15
75788;BME280;64406;50.024;14.492;2023-05-10T12:35:33;97536.22;;;21.65;35.33
75788;BME280;64406;50.024;14.492;2023-05-10T12:37:59;97534.69;;;21.68;34.75
75788;BME280;64406;50.024;14.492;2023-05-10T12:40:25;97534.41;;;21.50;35.77
75788;BME280;64406;50.024;14.492;2023-05-10T12:42:51;97536.22;;;21.65;35.07
75788;BME280;64406;50.024;14.492;2023-05-10T12:45:18;97540.38;;;21.56;36.75
75788;BME280;64406;50.024;14.492;2023-05-10T12:47:43;97533.44;;;21.16;36.09
75788;BME280;64406;50.024;14.492;2023-05-10T12:50:09;97537.56;;;21.06;36.86
75788;BME280;64406;50.024;14.492;2023-05-10T12:52:35;97540.97;;;21.00;36.77
75788;BME280;64406;50.024;14.492;2023-05-10T12:55:01;97539.31;;;20.95;37.34
75788;BME280;64406;50.024;14.492;2023-05-10T12:57:27;97529.59;;;21.21;37.10
75788;BME280;64406;50.024;14.492;2023-05-10T12:59:54;97541.81;;;21.46;36.71
75788;BME280;64406;50.024;14.492;2023-05-10T13:02:20;97540.97;;;21.68;36.27
75788;BME280;64406;50.024;14.492;2023-05-10T13:04:48;97536.75;;;21.48;36.13
75788;BME280;64406;50.024;14.492;2023-05-10T13:07:13;97541.63;;;22.41;35.03
75788;BME280;64406;50.024;14.492;2023-05-10T13:09:39;97540.69;;;22.94;33.21
75788;BME280;64406;50.024;14.492;2023-05-10T13:12:06;97538.41;;;23.03;34.07
75788;BME280;64406;50.024;14.492;2023-05-10T13:14:31;97540.88;;;23.15;32.44
75788;BME280;64406;50.024;14.492;2023-05-10T13:16:57;97532.81;;;23.37;32.73
75788;BME280;64406;50.024;14.492;2023-05-10T13:19:23;97540.47;;;23.13;34.18
75788;BME280;64406;50.024;14.492;2023-05-10T13:21:49;97537.25;;;22.37;33.92
75788;BME280;64406;50.024;14.492;2023-05-10T13:24:14;97540.22;;;22.55;34.13
75788;BME280;64406;50.024;14.492;2023-05-10T13:26:40;97534.31;;;22.22;34.83
75788;BME280;64406;50.024;14.492;2023-05-10T13:29:06;97533.94;;;22.24;34.16
75788;BME280;64406;50.024;14.492;2023-05-10T13:31:33;97535.50;;;22.25;34.63
75788;BME280;64406;50.024;14.492;2023-05-10T13:33:59;97539.44;;;21.97;34.78
75788;BME280;64406;50.024;14.492;2023-05-10T13:36:25;97525.72;;;22.24;33.95